Af Claudia Prima — ICTE — position and weather

sailwx.info

Track history (hours):
 
Tides and Currents Weather Stations Pressure Air Temp Water Temp Dewpoint Dewpoint Depression Visibility Wind Speed Wind Dir Waves Ship Positions

Af Claudia Prima

Last reported at 2013-Aug-24 16:23 UTC. Time now 2014-Jul-29 04:42 UTC.
Position N 41°19' E 019°27'.
Warning: this ship's position is months out of date.

Length 144 m; draft 6.1 m.

Type: Ship. MMSI: 247313900.

Date/timePositionNaut miles runAvg speedWind from/ knotsBaromVisibWave heightAir tempDewpointWater temp
2013-Aug-24 16:23N 41°19' E 019°27'0 0.0
2013-Aug-24 13:33N 41°19' E 019°27'3 2.5
2013-Aug-24 12:34N 41°16' E 019°27'1615.5
2013-Aug-24 11:31N 41°24' E 019°07'1515.5
2013-Aug-24 10:32N 41°31' E 018°50'  
2013-Aug-20 16:20N 41°18' E 019°27'1 1.1
2013-Aug-20 15:33N 41°19' E 019°27'0 0.0
2013-Aug-20 14:33N 41°19' E 019°27'0 0.0
2013-Aug-20 13:33N 41°19' E 019°27'2 0.7
2013-Aug-20 11:08N 41°17' E 019°27'712.9
2013-Aug-20 10:33N 41°18' E 019°18'1616.4
2013-Aug-20 09:33N 41°27' E 018°59'2116.0
2013-Aug-20 08:14N 41°38' E 018°35'2716.1
2013-Aug-20 06:33N 41°52' E 018°04'11 0.3
2013-Aug-18 20:19N 41°46' E 018°16'3115.6
2013-Aug-18 18:19N 41°30' E 018°53'1915.4
2013-Aug-18 17:04N 41°20' E 019°14'815.5
2013-Aug-18 16:33N 41°17' E 019°24'3 2.5
2013-Aug-18 15:18N 41°19' E 019°27'0 0.0
2013-Aug-18 13:24N 41°19' E 019°27'0 0.0
2013-Aug-18 12:30N 41°19' E 019°27'0 0.0
2013-Aug-18 11:30N 41°19' E 019°27'0 0.0
2013-Aug-18 10:19N 41°19' E 019°27'0 0.0
2013-Aug-18 08:25N 41°19' E 019°27'0 0.0
2013-Aug-18 07:19N 41°19' E 019°27'0 0.0
2013-Aug-18 06:33N 41°19' E 019°27'9 8.5
2013-Aug-18 05:33N 41°15' E 019°17'3316.0
2013-Aug-18 03:30N 41°13' E 018°34'1516.0
2013-Aug-18 02:33N 41°13' E 018°13'1616.1
2013-Aug-18 01:33N 41°12' E 017°52'9 1.0
2013-Aug-17 16:05N 41°13' E 017°40'815.5
2013-Aug-17 15:33N 41°13' E 017°51'1515.6
2013-Aug-17 14:33N 41°14' E 018°11'1615.8
2013-Aug-17 13:34N 41°14' E 018°32'2315.8
2013-Aug-17 12:06N 41°15' E 019°03'915.6
2013-Aug-17 11:33N 41°16' E 019°14'6 1.0
2013-Aug-17 05:18N 41°15' E 019°06'1216.1
2013-Aug-17 04:33N 41°14' E 018°50'1615.9
2013-Aug-17 03:33N 41°13' E 018°29'1616.1
2013-Aug-17 02:33N 41°13' E 018°08'6 0.5
2013-Aug-16 14:32N 41°14' E 018°15'3315.0
2013-Aug-16 12:21N 41°15' E 018°59'1214.8
2013-Aug-16 11:33N 41°16' E 019°15'10 4.6
2013-Aug-16 09:24N 41°19' E 019°27'55 1.8
2013-Aug-15 02:31N 41°14' E 018°14'1615.4
2013-Aug-15 01:31N 41°14' E 018°34'1515.3
2013-Aug-15 00:33N 41°15' E 018°54'1615.8
2013-Aug-14 23:33N 41°16' E 019°15'10 9.7
2013-Aug-14 22:33N 41°19' E 019°27'0 0.0
2013-Aug-14 21:33N 41°19' E 019°27'0 0.0
2013-Aug-14 20:33N 41°19' E 019°27'0 0.0
2013-Aug-14 19:21N 41°19' E 019°27'0 0.0
2013-Aug-14 18:33N 41°19' E 019°27'0 0.0
2013-Aug-14 17:33N 41°19' E 019°27'0 0.0
2013-Aug-14 16:33N 41°19' E 019°27'  
Track history (hours):
 
Tides and Currents Weather Stations Pressure Air Temp Water Temp Dewpoint Dewpoint Depression Visibility Wind Speed Wind Dir Waves Ship Positions

Af Claudia Prima

Last reported at 2013-Aug-24 16:23 UTC. Time now 2014-Jul-29 04:42 UTC.
Position N 41°19' E 019°27'.
Warning: this ship's position is months out of date.

Length 144 m; draft 6.1 m.

Type: Ship. MMSI: 247313900.

Date/timePositionNaut miles runAvg speedWind from/ knotsBaromVisibWave heightAir tempDewpointWater temp
2013-Aug-24 16:23N 41°19' E 019°27'0 0.0
2013-Aug-24 13:33N 41°19' E 019°27'3 2.5
2013-Aug-24 12:34N 41°16' E 019°27'1615.5
2013-Aug-24 11:31N 41°24' E 019°07'1515.5
2013-Aug-24 10:32N 41°31' E 018°50'  
2013-Aug-20 16:20N 41°18' E 019°27'1 1.1
2013-Aug-20 15:33N 41°19' E 019°27'0 0.0
2013-Aug-20 14:33N 41°19' E 019°27'0 0.0
2013-Aug-20 13:33N 41°19' E 019°27'2 0.7
2013-Aug-20 11:08N 41°17' E 019°27'712.9
2013-Aug-20 10:33N 41°18' E 019°18'1616.4
2013-Aug-20 09:33N 41°27' E 018°59'2116.0
2013-Aug-20 08:14N 41°38' E 018°35'2716.1
2013-Aug-20 06:33N 41°52' E 018°04'11 0.3
2013-Aug-18 20:19N 41°46' E 018°16'3115.6
2013-Aug-18 18:19N 41°30' E 018°53'1915.4
2013-Aug-18 17:04N 41°20' E 019°14'815.5
2013-Aug-18 16:33N 41°17' E 019°24'3 2.5
2013-Aug-18 15:18N 41°19' E 019°27'0 0.0
2013-Aug-18 13:24N 41°19' E 019°27'0 0.0
2013-Aug-18 12:30N 41°19' E 019°27'0 0.0
2013-Aug-18 11:30N 41°19' E 019°27'0 0.0
2013-Aug-18 10:19N 41°19' E 019°27'0 0.0
2013-Aug-18 08:25N 41°19' E 019°27'0 0.0
2013-Aug-18 07:19N 41°19' E 019°27'0 0.0
2013-Aug-18 06:33N 41°19' E 019°27'9 8.5
2013-Aug-18 05:33N 41°15' E 019°17'3316.0
2013-Aug-18 03:30N 41°13' E 018°34'1516.0
2013-Aug-18 02:33N 41°13' E 018°13'1616.1
2013-Aug-18 01:33N 41°12' E 017°52'9 1.0
2013-Aug-17 16:05N 41°13' E 017°40'815.5
2013-Aug-17 15:33N 41°13' E 017°51'1515.6
2013-Aug-17 14:33N 41°14' E 018°11'1615.8
2013-Aug-17 13:34N 41°14' E 018°32'2315.8
2013-Aug-17 12:06N 41°15' E 019°03'915.6
2013-Aug-17 11:33N 41°16' E 019°14'6 1.0
2013-Aug-17 05:18N 41°15' E 019°06'1216.1
2013-Aug-17 04:33N 41°14' E 018°50'1615.9
2013-Aug-17 03:33N 41°13' E 018°29'1616.1
2013-Aug-17 02:33N 41°13' E 018°08'6 0.5
2013-Aug-16 14:32N 41°14' E 018°15'3315.0
2013-Aug-16 12:21N 41°15' E 018°59'1214.8
2013-Aug-16 11:33N 41°16' E 019°15'10 4.6
2013-Aug-16 09:24N 41°19' E 019°27'55 1.8
2013-Aug-15 02:31N 41°14' E 018°14'1615.4
2013-Aug-15 01:31N 41°14' E 018°34'1515.3
2013-Aug-15 00:33N 41°15' E 018°54'1615.8
2013-Aug-14 23:33N 41°16' E 019°15'10 9.7
2013-Aug-14 22:33N 41°19' E 019°27'0 0.0
2013-Aug-14 21:33N 41°19' E 019°27'0 0.0
2013-Aug-14 20:33N 41°19' E 019°27'0 0.0
2013-Aug-14 19:21N 41°19' E 019°27'0 0.0
2013-Aug-14 18:33N 41°19' E 019°27'0 0.0
2013-Aug-14 17:33N 41°19' E 019°27'0 0.0
2013-Aug-14 16:33N 41°19' E 019°27'  

Dump ship's entire track history